sensor_id;sensor_type;location;lat;lon;timestamp;pressure;altitude;pressure_sealevel;temperature;humidity
38616;BME280;24370;51.986;4.666;2023-02-10T00:01:09;103645.53;;;9.08;53.64
38616;BME280;24370;51.986;4.666;2023-02-10T00:03:35;103650.81;;;9.30;52.57
38616;BME280;24370;51.986;4.666;2023-02-10T00:06:01;103656.53;;;9.22;53.10
38616;BME280;24370;51.986;4.666;2023-02-10T00:08:27;103653.50;;;9.32;52.52
38616;BME280;24370;51.986;4.666;2023-02-10T00:11:01;103651.44;;;9.46;52.40
38616;BME280;24370;51.986;4.666;2023-02-10T00:13:28;103647.88;;;9.44;51.70
38616;BME280;24370;51.986;4.666;2023-02-10T00:15:54;103642.78;;;9.47;51.85
38616;BME280;24370;51.986;4.666;2023-02-10T00:18:19;103646.56;;;9.55;51.09
38616;BME280;24370;51.986;4.666;2023-02-10T00:20:45;103639.63;;;9.12;53.01
38616;BME280;24370;51.986;4.666;2023-02-10T00:23:10;103643.63;;;9.25;53.11
38616;BME280;24370;51.986;4.666;2023-02-10T00:25:36;103642.16;;;9.54;52.76
38616;BME280;24370;51.986;4.666;2023-02-10T00:28:02;103643.81;;;9.29;53.22
38616;BME280;24370;51.986;4.666;2023-02-10T00:30:28;103644.31;;;9.42;53.46
38616;BME280;24370;51.986;4.666;2023-02-10T00:32:54;103650.81;;;9.30;53.59
38616;BME280;24370;51.986;4.666;2023-02-10T00:35:20;103647.88;;;9.44;52.41
38616;BME280;24370;51.986;4.666;2023-02-10T00:37:45;103630.13;;;9.58;51.83
38616;BME280;24370;51.986;4.666;2023-02-10T00:40:11;103625.78;;;9.58;51.68
38616;BME280;24370;51.986;4.666;2023-02-10T00:42:36;103632.06;;;9.41;51.85
38616;BME280;24370;51.986;4.666;2023-02-10T00:45:02;103629.94;;;9.53;51.81
38616;BME280;24370;51.986;4.666;2023-02-10T00:47:28;103628.81;;;9.46;51.63
38616;BME280;24370;51.986;4.666;2023-02-10T00:49:53;103633.03;;;9.65;50.50
38616;BME280;24370;51.986;4.666;2023-02-10T00:52:18;103629.00;;;9.51;51.33
38616;BME280;24370;51.986;4.666;2023-02-10T00:54:44;103630.66;;;9.49;52.33
38616;BME280;24370;51.986;4.666;2023-02-10T00:57:09;103627.31;;;9.53;51.53
38616;BME280;24370;51.986;4.666;2023-02-10T00:59:35;103639.66;;;9.57;51.11
38616;BME280;24370;51.986;4.666;2023-02-10T01:02:00;103638.13;;;9.62;50.51
38616;BME280;24370;51.986;4.666;2023-02-10T01:04:25;103646.56;;;9.55;50.37
38616;BME280;24370;51.986;4.666;2023-02-10T01:06:51;103646.19;;;9.46;50.74
38616;BME280;24370;51.986;4.666;2023-02-10T01:09:16;103641.72;;;9.21;51.26
38616;BME280;24370;51.986;4.666;2023-02-10T01:11:44;103652.34;;;9.25;50.38
38616;BME280;24370;51.986;4.666;2023-02-10T01:14:10;103645.00;;;9.15;51.32
38616;BME280;24370;51.986;4.666;2023-02-10T01:16:36;103637.22;;;8.95;50.98
38616;BME280;24370;51.986;4.666;2023-02-10T01:19:02;103650.31;;;9.18;50.51
38616;BME280;24370;51.986;4.666;2023-02-10T01:21:28;103641.91;;;8.83;50.79
38616;BME280;24370;51.986;4.666;2023-02-10T01:23:55;103650.44;;;8.79;50.65
38616;BME280;24370;51.986;4.666;2023-02-10T01:26:20;103640.06;;;8.59;51.68
38616;BME280;24370;51.986;4.666;2023-02-10T01:28:46;103644.09;;;8.53;52.27
38616;BME280;24370;51.986;4.666;2023-02-10T01:31:14;103643.69;;;8.63;52.14
38616;BME280;24370;51.986;4.666;2023-02-10T01:33:40;103644.56;;;8.63;52.02
38616;BME280;24370;51.986;4.666;2023-02-10T01:36:09;103647.94;;;8.61;52.49
38616;BME280;24370;51.986;4.666;2023-02-10T01:38:35;103656.38;;;8.55;52.08
38616;BME280;24370;51.986;4.666;2023-02-10T01:41:01;103655.53;;;8.76;51.74
38616;BME280;24370;51.986;4.666;2023-02-10T01:43:26;103663.06;;;8.89;50.89
38616;BME280;24370;51.986;4.666;2023-02-10T01:45:52;103657.44;;;8.59;51.01
38616;BME280;24370;51.986;4.666;2023-02-10T01:48:17;103662.34;;;8.53;51.19
38616;BME280;24370;51.986;4.666;2023-02-10T01:51:01;103660.78;;;8.56;51.71
38616;BME280;24370;51.986;4.666;2023-02-10T01:53:30;103662.53;;;8.38;51.93
38616;BME280;24370;51.986;4.666;2023-02-10T01:55:58;103660.22;;;8.63;50.82
38616;BME280;24370;51.986;4.666;2023-02-10T01:58:27;103661.25;;;8.67;49.98
38616;BME280;24370;51.986;4.666;2023-02-10T02:00:54;103666.25;;;8.43;50.55
38616;BME280;24370;51.986;4.666;2023-02-10T02:03:20;103666.38;;;8.07;51.32
38616;BME280;24370;51.986;4.666;2023-02-10T02:05:45;103667.06;;;8.22;50.95
38616;BME280;24370;51.986;4.666;2023-02-10T02:13:22;103656.22;;;8.13;52.25
38616;BME280;24370;51.986;4.666;2023-02-10T02:15:57;103655.84;;;8.04;52.45
38616;BME280;24370;51.986;4.666;2023-02-10T02:32:20;103652.00;;;8.15;52.57
38616;BME280;24370;51.986;4.666;2023-02-10T02:34:50;103654.47;;;8.51;52.67
38616;BME280;24370;51.986;4.666;2023-02-10T02:37:45;103658.44;;;8.62;52.33
38616;BME280;24370;51.986;4.666;2023-02-10T02:40:14;103666.19;;;8.61;50.82
38616;BME280;24370;51.986;4.666;2023-02-10T02:42:40;103671.53;;;8.64;51.18
38616;BME280;24370;51.986;4.666;2023-02-10T02:45:13;103671.78;;;8.49;51.45
38616;BME280;24370;51.986;4.666;2023-02-10T02:50:41;103687.09;;;8.04;52.84
38616;BME280;24370;51.986;4.666;2023-02-10T02:53:39;103684.13;;;8.53;52.20
38616;BME280;24370;51.986;4.666;2023-02-10T02:59:03;103696.41;;;8.18;52.59
38616;BME280;24370;51.986;4.666;2023-02-10T03:04:06;103693.34;;;7.34;55.21
38616;BME280;24370;51.986;4.666;2023-02-10T03:06:33;103691.16;;;7.79;54.59
38616;BME280;24370;51.986;4.666;2023-02-10T03:08:59;103694.47;;;7.94;53.48
38616;BME280;24370;51.986;4.666;2023-02-10T03:11:25;103697.81;;;7.02;56.68
38616;BME280;24370;51.986;4.666;2023-02-10T03:13:50;103681.81;;;7.46;56.30
38616;BME280;24370;51.986;4.666;2023-02-10T03:16:15;103689.81;;;7.51;55.53
38616;BME280;24370;51.986;4.666;2023-02-10T03:18:41;103698.69;;;7.37;56.40
38616;BME280;24370;51.986;4.666;2023-02-10T03:21:06;103693.09;;;7.83;55.07
38616;BME280;24370;51.986;4.666;2023-02-10T03:23:32;103697.41;;;7.64;55.13
38616;BME280;24370;51.986;4.666;2023-02-10T03:25:58;103692.88;;;8.16;53.79
38616;BME280;24370;51.986;4.666;2023-02-10T03:28:24;103687.09;;;8.43;52.13
38616;BME280;24370;51.986;4.666;2023-02-10T03:30:50;103690.88;;;8.30;52.99
38616;BME280;24370;51.986;4.666;2023-02-10T03:33:16;103690.41;;;8.39;52.17
38616;BME280;24370;51.986;4.666;2023-02-10T03:35:43;103691.75;;;8.11;52.32
38616;BME280;24370;51.986;4.666;2023-02-10T03:38:08;103692.44;;;8.07;52.57
38616;BME280;24370;51.986;4.666;2023-02-10T03:40:34;103692.00;;;7.97;54.37
38616;BME280;24370;51.986;4.666;2023-02-10T03:42:59;103691.81;;;8.12;54.03
38616;BME280;24370;51.986;4.666;2023-02-10T03:45:25;103702.38;;;8.15;53.00
38616;BME280;24370;51.986;4.666;2023-02-10T03:47:50;103697.78;;;8.10;53.12
38616;BME280;24370;51.986;4.666;2023-02-10T03:50:16;103688.22;;;8.28;53.18
38616;BME280;24370;51.986;4.666;2023-02-10T03:52:41;103694.22;;;8.08;53.29
38616;BME280;24370;51.986;4.666;2023-02-10T03:55:07;103689.84;;;8.26;52.24
38616;BME280;24370;51.986;4.666;2023-02-10T03:57:32;103687.34;;;7.90;54.21
38616;BME280;24370;51.986;4.666;2023-02-10T03:59:59;103689.59;;;8.02;53.79
38616;BME280;24370;51.986;4.666;2023-02-10T04:02:24;103685.44;;;8.06;54.07
38616;BME280;24370;51.986;4.666;2023-02-10T04:04:49;103681.19;;;7.70;54.96
38616;BME280;24370;51.986;4.666;2023-02-10T04:07:15;103689.72;;;8.23;53.66
38616;BME280;24370;51.986;4.666;2023-02-10T04:09:40;103679.66;;;7.93;54.31
38616;BME280;24370;51.986;4.666;2023-02-10T04:12:06;103691.06;;;8.15;52.90
38616;BME280;24370;51.986;4.666;2023-02-10T04:14:31;103689.03;;;7.90;53.37
38616;BME280;24370;51.986;4.666;2023-02-10T04:16:57;103691.03;;;7.40;56.34
38616;BME280;24370;51.986;4.666;2023-02-10T04:19:22;103691.59;;;7.70;55.82
38616;BME280;24370;51.986;4.666;2023-02-10T04:21:47;103693.53;;;7.74;56.39
38616;BME280;24370;51.986;4.666;2023-02-10T04:24:13;103699.78;;;7.78;56.06
38616;BME280;24370;51.986;4.666;2023-02-10T04:26:39;103700.88;;;8.01;55.26
38616;BME280;24370;51.986;4.666;2023-02-10T04:29:04;103692.97;;;8.00;54.62
38616;BME280;24370;51.986;4.666;2023-02-10T04:31:30;103702.28;;;7.94;55.13
38616;BME280;24370;51.986;4.666;2023-02-10T04:33:55;103695.47;;;7.78;55.14
38616;BME280;24370;51.986;4.666;2023-02-10T04:36:20;103703.91;;;7.92;56.18
38616;BME280;24370;51.986;4.666;2023-02-10T04:38:46;103699.72;;;8.14;55.23
38616;BME280;24370;51.986;4.666;2023-02-10T04:41:11;103704.22;;;7.98;55.49
38616;BME280;24370;51.986;4.666;2023-02-10T04:43:36;103703.19;;;7.77;57.12
38616;BME280;24370;51.986;4.666;2023-02-10T04:46:02;103693.38;;;7.71;56.71
38616;BME280;24370;51.986;4.666;2023-02-10T04:48:29;103699.72;;;8.14;55.62
38616;BME280;24370;51.986;4.666;2023-02-10T04:50:55;103692.00;;;7.97;56.30
38616;BME280;24370;51.986;4.666;2023-02-10T04:53:20;103700.63;;;7.96;56.27
38616;BME280;24370;51.986;4.666;2023-02-10T04:55:46;103703.13;;;8.13;55.44
38616;BME280;24370;51.986;4.666;2023-02-10T04:58:11;103696.00;;;8.46;54.69
38616;BME280;24370;51.986;4.666;2023-02-10T05:00:36;103689.19;;;8.50;54.16
38616;BME280;24370;51.986;4.666;2023-02-10T05:03:02;103684.31;;;8.38;54.83
38616;BME280;24370;51.986;4.666;2023-02-10T05:05:27;103679.09;;;8.38;53.77
38616;BME280;24370;51.986;4.666;2023-02-10T05:07:53;103677.56;;;8.43;53.96
38616;BME280;24370;51.986;4.666;2023-02-10T05:10:19;103678.66;;;8.29;54.10
38616;BME280;24370;51.986;4.666;2023-02-10T05:12:44;103683.25;;;8.35;53.72
38616;BME280;24370;51.986;4.666;2023-02-10T05:15:10;103686.69;;;8.33;53.71
38616;BME280;24370;51.986;4.666;2023-02-10T05:17:38;103684.13;;;8.35;52.90
38616;BME280;24370;51.986;4.666;2023-02-10T05:20:04;103692.63;;;8.31;54.06
38616;BME280;24370;51.986;4.666;2023-02-10T05:22:29;103677.63;;;8.25;53.74
38616;BME280;24370;51.986;4.666;2023-02-10T05:24:56;103684.38;;;8.20;54.21
38616;BME280;24370;51.986;4.666;2023-02-10T05:27:22;103677.22;;;8.36;53.74
38616;BME280;24370;51.986;4.666;2023-02-10T05:29:48;103685.56;;;8.09;54.96
38616;BME280;24370;51.986;4.666;2023-02-10T05:32:14;103688.94;;;7.69;57.42
38616;BME280;24370;51.986;4.666;2023-02-10T05:34:39;103696.50;;;7.82;56.89
38616;BME280;24370;51.986;4.666;2023-02-10T05:37:04;103702.72;;;8.04;55.27
38616;BME280;24370;51.986;4.666;2023-02-10T05:39:30;103703.34;;;7.80;55.62
38616;BME280;24370;51.986;4.666;2023-02-10T05:41:57;103690.13;;;7.57;57.32
38616;BME280;24370;51.986;4.666;2023-02-10T05:44:24;103687.88;;;7.83;55.78
38616;BME280;24370;51.986;4.666;2023-02-10T05:46:50;103685.19;;;7.63;56.18
38616;BME280;24370;51.986;4.666;2023-02-10T05:49:16;103677.94;;;7.94;56.10
38616;BME280;24370;51.986;4.666;2023-02-10T05:51:42;103676.88;;;7.53;56.33
38616;BME280;24370;51.986;4.666;2023-02-10T05:54:07;103679.25;;;7.12;57.98
38616;BME280;24370;51.986;4.666;2023-02-10T05:56:33;103673.00;;;7.26;58.17
38616;BME280;24370;51.986;4.666;2023-02-10T05:58:59;103676.31;;;7.58;56.62
38616;BME280;24370;51.986;4.666;2023-02-10T06:01:25;103668.78;;;7.46;55.94
38616;BME280;24370;51.986;4.666;2023-02-10T06:03:50;103678.28;;;7.28;56.53
38616;BME280;24370;51.986;4.666;2023-02-10T06:06:16;103678.06;;;7.41;55.47
38616;BME280;24370;51.986;4.666;2023-02-10T06:08:41;103695.00;;;7.69;55.57
38616;BME280;24370;51.986;4.666;2023-02-10T06:11:07;103709.38;;;7.61;54.90
38616;BME280;24370;51.986;4.666;2023-02-10T06:13:33;103709.91;;;7.36;55.54
38616;BME280;24370;51.986;4.666;2023-02-10T06:15:59;103699.06;;;7.62;54.74
38616;BME280;24370;51.986;4.666;2023-02-10T06:18:27;103696.97;;;7.55;55.05
38616;BME280;24370;51.986;4.666;2023-02-10T06:20:52;103698.88;;;7.59;54.27
38616;BME280;24370;51.986;4.666;2023-02-10T06:23:18;103706.34;;;7.70;54.76
38616;BME280;24370;51.986;4.666;2023-02-10T06:25:45;103707.22;;;7.52;54.79
38616;BME280;24370;51.986;4.666;2023-02-10T06:28:10;103707.69;;;7.43;55.07
38616;BME280;24370;51.986;4.666;2023-02-10T06:30:36;103705.88;;;7.60;55.19
38616;BME280;24370;51.986;4.666;2023-02-10T06:33:02;103720.91;;;7.30;55.72
38616;BME280;24370;51.986;4.666;2023-02-10T06:35:27;103727.78;;;7.64;55.87
38616;BME280;24370;51.986;4.666;2023-02-10T06:37:52;103732.16;;;7.83;54.47
38616;BME280;24370;51.986;4.666;2023-02-10T06:40:18;103728.56;;;8.19;53.39
38616;BME280;24370;51.986;4.666;2023-02-10T06:42:44;103733.41;;;7.55;55.40
38616;BME280;24370;51.986;4.666;2023-02-10T06:45:09;103733.56;;;7.58;55.36
38616;BME280;24370;51.986;4.666;2023-02-10T06:47:35;103740.72;;;7.62;54.81
38616;BME280;24370;51.986;4.666;2023-02-10T06:50:02;103731.72;;;7.74;55.94
38616;BME280;24370;51.986;4.666;2023-02-10T06:52:28;103731.47;;;7.87;54.53
38616;BME280;24370;51.986;4.666;2023-02-10T06:54:53;103723.44;;;7.64;55.29
38616;BME280;24370;51.986;4.666;2023-02-10T06:57:19;103732.47;;;8.09;53.97
38616;BME280;24370;51.986;4.666;2023-02-10T06:59:44;103722.41;;;7.79;54.81
38616;BME280;24370;51.986;4.666;2023-02-10T07:02:11;103711.09;;;7.24;56.06
38616;BME280;24370;51.986;4.666;2023-02-10T07:04:37;103713.59;;;7.05;58.59
38616;BME280;24370;51.986;4.666;2023-02-10T07:07:03;103717.75;;;8.09;54.85
38616;BME280;24370;51.986;4.666;2023-02-10T07:09:28;103709.50;;;7.10;57.42
38616;BME280;24370;51.986;4.666;2023-02-10T07:11:54;103709.63;;;7.29;57.55
38616;BME280;24370;51.986;4.666;2023-02-10T07:14:19;103709.81;;;7.88;56.10
38616;BME280;24370;51.986;4.666;2023-02-10T07:16:45;103718.97;;;7.44;56.04
38616;BME280;24370;51.986;4.666;2023-02-10T07:19:10;103721.38;;;7.57;55.88
38616;BME280;24370;51.986;4.666;2023-02-10T07:21:35;103725.06;;;7.44;55.65
38616;BME280;24370;51.986;4.666;2023-02-10T07:24:03;103729.88;;;6.84;57.55
38616;BME280;24370;51.986;4.666;2023-02-10T07:26:29;103739.13;;;6.79;58.14
38616;BME280;24370;51.986;4.666;2023-02-10T07:28:54;103733.22;;;7.16;56.86
38616;BME280;24370;51.986;4.666;2023-02-10T07:31:20;103731.47;;;7.51;56.24
38616;BME280;24370;51.986;4.666;2023-02-10T07:33:45;103749.69;;;6.99;58.35
38616;BME280;24370;51.986;4.666;2023-02-10T07:36:11;103759.28;;;6.83;59.50
38616;BME280;24370;51.986;4.666;2023-02-10T07:38:36;103770.16;;;7.61;56.41
38616;BME280;24370;51.986;4.666;2023-02-10T07:41:03;103769.50;;;7.13;57.82
38616;BME280;24370;51.986;4.666;2023-02-10T07:43:29;103770.31;;;7.64;57.51
38616;BME280;24370;51.986;4.666;2023-02-10T07:45:55;103776.41;;;6.63;61.36
38616;BME280;24370;51.986;4.666;2023-02-10T07:48:20;103746.44;;;7.21;60.75
38616;BME280;24370;51.986;4.666;2023-02-10T07:50:46;103751.97;;;7.27;60.50
38616;BME280;24370;51.986;4.666;2023-02-10T07:53:12;103758.06;;;7.27;59.32
38616;BME280;24370;51.986;4.666;2023-02-10T07:55:38;103763.09;;;7.77;58.25
38616;BME280;24370;51.986;4.666;2023-02-10T07:58:05;103762.59;;;6.97;58.90
38616;BME280;24370;51.986;4.666;2023-02-10T08:00:30;103764.75;;;7.22;59.02
38616;BME280;24370;51.986;4.666;2023-02-10T08:02:56;103778.50;;;7.03;60.25
38616;BME280;24370;51.986;4.666;2023-02-10T08:05:21;103778.16;;;6.79;60.81
38616;BME280;24370;51.986;4.666;2023-02-10T08:07:48;103776.00;;;7.05;59.71
38616;BME280;24370;51.986;4.666;2023-02-10T08:10:13;103777.44;;;7.51;58.24
38616;BME280;24370;51.986;4.666;2023-02-10T08:12:39;103793.75;;;6.79;61.78
38616;BME280;24370;51.986;4.666;2023-02-10T08:15:06;103776.56;;;7.50;59.72
38616;BME280;24370;51.986;4.666;2023-02-10T08:17:31;103778.91;;;7.45;60.17
38616;BME280;24370;51.986;4.666;2023-02-10T08:19:57;103786.69;;;7.27;59.84
38616;BME280;24370;51.986;4.666;2023-02-10T08:22:22;103777.97;;;7.09;59.29
38616;BME280;24370;51.986;4.666;2023-02-10T08:24:48;103775.59;;;6.97;62.28
38616;BME280;24370;51.986;4.666;2023-02-10T08:27:13;103771.03;;;7.09;59.51
38616;BME280;24370;51.986;4.666;2023-02-10T08:29:38;103765.84;;;7.80;58.21
38616;BME280;24370;51.986;4.666;2023-02-10T08:32:04;103774.44;;;7.43;58.69
38616;BME280;24370;51.986;4.666;2023-02-10T08:34:29;103781.91;;;7.89;57.73
38616;BME280;24370;51.986;4.666;2023-02-10T08:36:55;103782.66;;;7.69;58.57
38616;BME280;24370;51.986;4.666;2023-02-10T08:39:20;103781.78;;;7.68;59.40
38616;BME280;24370;51.986;4.666;2023-02-10T08:41:46;103774.00;;;7.34;61.27
38616;BME280;24370;51.986;4.666;2023-02-10T08:44:12;103780.97;;;6.84;63.52
38616;BME280;24370;51.986;4.666;2023-02-10T08:46:38;103768.81;;;7.34;61.01
38616;BME280;24370;51.986;4.666;2023-02-10T08:49:03;103770.84;;;6.88;64.98
38616;BME280;24370;51.986;4.666;2023-02-10T08:51:29;103771.50;;;7.53;62.75
38616;BME280;24370;51.986;4.666;2023-02-10T08:53:56;103774.72;;;8.21;60.37
38616;BME280;24370;51.986;4.666;2023-02-10T08:56:22;103774.19;;;7.73;59.83
38616;BME280;24370;51.986;4.666;2023-02-10T08:58:48;103777.97;;;7.61;61.30
38616;BME280;24370;51.986;4.666;2023-02-10T09:01:18;103778.50;;;7.54;61.67
38616;BME280;24370;51.986;4.666;2023-02-10T09:03:45;103780.44;;;7.94;60.20
38616;BME280;24370;51.986;4.666;2023-02-10T09:06:23;103776.41;;;8.01;59.99
38616;BME280;24370;51.986;4.666;2023-02-10T09:08:50;103780.44;;;8.50;57.73
38616;BME280;24370;51.986;4.666;2023-02-10T09:11:19;103779.53;;;8.12;58.68
38616;BME280;24370;51.986;4.666;2023-02-10T09:13:44;103781.03;;;8.07;59.40
38616;BME280;24370;51.986;4.666;2023-02-10T09:16:10;103784.63;;;8.66;58.03
38616;BME280;24370;51.986;4.666;2023-02-10T09:18:35;103789.91;;;8.48;58.62
38616;BME280;24370;51.986;4.666;2023-02-10T09:21:01;103790.53;;;8.24;59.84
38616;BME280;24370;51.986;4.666;2023-02-10T09:23:27;103791.31;;;8.04;60.88
38616;BME280;24370;51.986;4.666;2023-02-10T09:25:54;103790.84;;;8.12;59.86
38616;BME280;24370;51.986;4.666;2023-02-10T09:28:20;103792.47;;;8.10;59.48
38616;BME280;24370;51.986;4.666;2023-02-10T09:30:46;103802.00;;;8.65;58.16
38616;BME280;24370;51.986;4.666;2023-02-10T09:33:12;103807.97;;;8.82;58.80
38616;BME280;24370;51.986;4.666;2023-02-10T09:35:38;103803.75;;;9.25;56.76
38616;BME280;24370;51.986;4.666;2023-02-10T09:38:03;103805.97;;;8.96;57.85
38616;BME280;24370;51.986;4.666;2023-02-10T09:40:32;103798.22;;;9.39;58.75
38616;BME280;24370;51.986;4.666;2023-02-10T09:43:11;103795.34;;;10.88;53.72
38616;BME280;24370;51.986;4.666;2023-02-10T09:45:42;103787.72;;;11.46;54.81
38616;BME280;24370;51.986;4.666;2023-02-10T09:48:53;103798.72;;;12.16;53.03
38616;BME280;24370;51.986;4.666;2023-02-10T09:54:25;103793.63;;;11.67;52.69
38616;BME280;24370;51.986;4.666;2023-02-10T09:56:57;103785.41;;;12.10;49.86
38616;BME280;24370;51.986;4.666;2023-02-10T09:59:23;103789.41;;;12.56;51.03
38616;BME280;24370;51.986;4.666;2023-02-10T10:01:55;103793.75;;;11.70;50.76
38616;BME280;24370;51.986;4.666;2023-02-10T10:04:24;103786.88;;;12.30;49.36
38616;BME280;24370;51.986;4.666;2023-02-10T10:06:55;103781.41;;;12.83;48.97
38616;BME280;24370;51.986;4.666;2023-02-10T10:09:38;103786.38;;;14.13;46.43
38616;BME280;24370;51.986;4.666;2023-02-10T10:12:07;103782.69;;;13.31;47.32
38616;BME280;24370;51.986;4.666;2023-02-10T10:14:38;103780.31;;;14.17;47.87
38616;BME280;24370;51.986;4.666;2023-02-10T10:19:52;103792.25;;;12.06;51.05
38616;BME280;24370;51.986;4.666;2023-02-10T10:22:35;103785.78;;;13.16;48.18
38616;BME280;24370;51.986;4.666;2023-02-10T10:25:40;103779.25;;;12.38;48.23
38616;BME280;24370;51.986;4.666;2023-02-10T10:35:48;103760.97;;;12.11;50.60
38616;BME280;24370;51.986;4.666;2023-02-10T10:38:18;103756.25;;;12.00;51.55
38616;BME280;24370;51.986;4.666;2023-02-10T10:40:45;103764.50;;;12.13;50.36
38616;BME280;24370;51.986;4.666;2023-02-10T10:43:17;103768.84;;;12.11;50.94
38616;BME280;24370;51.986;4.666;2023-02-10T10:45:49;103763.66;;;12.75;49.36
38616;BME280;24370;51.986;4.666;2023-02-10T10:48:21;103763.22;;;12.59;49.49
38616;BME280;24370;51.986;4.666;2023-02-10T10:50:58;103768.38;;;12.54;49.58
38616;BME280;24370;51.986;4.666;2023-02-10T10:53:42;103763.03;;;12.83;49.83
38616;BME280;24370;51.986;4.666;2023-02-10T10:58:58;103756.47;;;13.34;47.71
38616;BME280;24370;51.986;4.666;2023-02-10T11:01:39;103750.97;;;13.98;47.10
38616;BME280;24370;51.986;4.666;2023-02-10T11:04:07;103755.19;;;13.52;47.31
38616;BME280;24370;51.986;4.666;2023-02-10T11:06:36;103753.53;;;13.57;47.29
38616;BME280;24370;51.986;4.666;2023-02-10T11:09:05;103760.28;;;13.46;47.23
38616;BME280;24370;51.986;4.666;2023-02-10T11:11:38;103747.97;;;13.45;47.46
38616;BME280;24370;51.986;4.666;2023-02-10T11:14:21;103756.81;;;13.47;48.47
38616;BME280;24370;51.986;4.666;2023-02-10T11:16:53;103750.81;;;12.85;49.16
38616;BME280;24370;51.986;4.666;2023-02-10T11:19:25;103750.78;;;12.52;50.36
38616;BME280;24370;51.986;4.666;2023-02-10T11:21:51;103749.97;;;11.66;52.27
38616;BME280;24370;51.986;4.666;2023-02-10T11:24:23;103748.44;;;13.63;49.66
38616;BME280;24370;51.986;4.666;2023-02-10T11:27:03;103739.41;;;13.52;48.00
38616;BME280;24370;51.986;4.666;2023-02-10T11:29:32;103738.31;;;13.09;48.42
38616;BME280;24370;51.986;4.666;2023-02-10T11:31:58;103729.00;;;14.37;46.15
38616;BME280;24370;51.986;4.666;2023-02-10T11:34:32;103733.78;;;13.36;48.01
38616;BME280;24370;51.986;4.666;2023-02-10T11:37:11;103730.28;;;12.70;50.62
38616;BME280;24370;51.986;4.666;2023-02-10T11:39:43;103726.03;;;13.07;49.61
38616;BME280;24370;51.986;4.666;2023-02-10T11:42:25;103730.47;;;12.77;50.34
38616;BME280;24370;51.986;4.666;2023-02-10T11:47:29;103721.94;;;12.85;49.75
38616;BME280;24370;51.986;4.666;2023-02-10T11:49:55;103731.31;;;12.44;50.72
38616;BME280;24370;51.986;4.666;2023-02-10T11:52:23;103729.47;;;12.39;51.05
38616;BME280;24370;51.986;4.666;2023-02-10T11:54:52;103729.53;;;12.75;50.74
38616;BME280;24370;51.986;4.666;2023-02-10T12:00:20;103721.81;;;13.48;49.23
38616;BME280;24370;51.986;4.666;2023-02-10T12:11:25;103712.25;;;13.91;48.18
38616;BME280;24370;51.986;4.666;2023-02-10T12:16:55;103707.72;;;14.25;47.72
38616;BME280;24370;51.986;4.666;2023-02-10T12:19:34;103717.19;;;13.76;48.75
38616;BME280;24370;51.986;4.666;2023-02-10T12:33:44;103698.59;;;14.53;47.90
38616;BME280;24370;51.986;4.666;2023-02-10T12:42:27;103693.97;;;14.86;46.91
38616;BME280;24370;51.986;4.666;2023-02-10T12:47:41;103692.28;;;14.89;47.20
38616;BME280;24370;51.986;4.666;2023-02-10T12:52:43;103690.53;;;15.47;45.92
38616;BME280;24370;51.986;4.666;2023-02-10T12:55:15;103683.50;;;14.90;45.25
38616;BME280;24370;51.986;4.666;2023-02-10T12:58:00;103685.59;;;15.10;43.87
38616;BME280;24370;51.986;4.666;2023-02-10T13:00:32;103674.78;;;14.95;43.98
38616;BME280;24370;51.986;4.666;2023-02-10T13:03:01;103674.19;;;16.41;42.02
38616;BME280;24370;51.986;4.666;2023-02-10T13:05:32;103658.53;;;15.22;43.05
38616;BME280;24370;51.986;4.666;2023-02-10T13:08:01;103676.13;;;15.23;43.82
38616;BME280;24370;51.986;4.666;2023-02-10T13:10:35;103663.66;;;14.15;45.82
38616;BME280;24370;51.986;4.666;2023-02-10T13:13:05;103656.72;;;15.18;44.06
38616;BME280;24370;51.986;4.666;2023-02-10T13:15:40;103652.34;;;14.63;46.21
38616;BME280;24370;51.986;4.666;2023-02-10T13:18:27;103650.16;;;15.48;45.58
38616;BME280;24370;51.986;4.666;2023-02-10T13:26:17;103647.56;;;13.99;48.35
38616;BME280;24370;51.986;4.666;2023-02-10T13:36:29;103639.88;;;15.66;45.49
38616;BME280;24370;51.986;4.666;2023-02-10T13:39:00;103626.59;;;16.32;44.88
38616;BME280;24370;51.986;4.666;2023-02-10T13:41:31;103624.84;;;14.99;46.59
38616;BME280;24370;51.986;4.666;2023-02-10T13:44:31;103618.47;;;14.86;46.62
38616;BME280;24370;51.986;4.666;2023-02-10T13:49:36;103623.06;;;14.02;47.31
38616;BME280;24370;51.986;4.666;2023-02-10T13:52:14;103625.38;;;13.85;50.83
38616;BME280;24370;51.986;4.666;2023-02-10T13:54:56;103630.63;;;14.29;49.86
38616;BME280;24370;51.986;4.666;2023-02-10T13:57:28;103634.94;;;14.71;49.18
38616;BME280;24370;51.986;4.666;2023-02-10T14:00:09;103632.94;;;14.61;50.36
38616;BME280;24370;51.986;4.666;2023-02-10T14:02:35;103620.47;;;14.03;51.20
38616;BME280;24370;51.986;4.666;2023-02-10T14:05:01;103613.34;;;15.54;47.79
38616;BME280;24370;51.986;4.666;2023-02-10T14:12:58;103604.41;;;14.35;50.21
38616;BME280;24370;51.986;4.666;2023-02-10T14:15:33;103603.03;;;14.56;50.11
38616;BME280;24370;51.986;4.666;2023-02-10T14:18:05;103604.94;;;13.71;52.38
38616;BME280;24370;51.986;4.666;2023-02-10T14:20:35;103605.72;;;14.12;51.36
38616;BME280;24370;51.986;4.666;2023-02-10T14:23:02;103592.19;;;14.37;50.68
38616;BME280;24370;51.986;4.666;2023-02-10T14:25:38;103594.63;;;14.75;49.99
38616;BME280;24370;51.986;4.666;2023-02-10T14:28:11;103602.78;;;13.52;51.63
38616;BME280;24370;51.986;4.666;2023-02-10T14:30:51;103600.19;;;13.96;51.77
38616;BME280;24370;51.986;4.666;2023-02-10T14:33:25;103597.09;;;13.74;51.78
38616;BME280;24370;51.986;4.666;2023-02-10T14:35:53;103602.06;;;13.61;52.56
38616;BME280;24370;51.986;4.666;2023-02-10T14:38:22;103585.25;;;14.42;50.54
38616;BME280;24370;51.986;4.666;2023-02-10T14:40:48;103573.13;;;14.03;51.31
38616;BME280;24370;51.986;4.666;2023-02-10T14:43:21;103583.53;;;13.54;51.63
38616;BME280;24370;51.986;4.666;2023-02-10T14:45:47;103587.53;;;14.71;49.02
38616;BME280;24370;51.986;4.666;2023-02-10T14:48:14;103585.81;;;13.79;51.17